Detalii statie SOMALEX GHIMPATI [0000198E]

Toti senzorii

Date Temperatura solului [C]Precipitatii [mm]Voltaj baterie [mV]Leaf Wetness [Min]HC Air temperature [C]HC Relative humidity [%]Punctul de roua [C]
medieminmaxsumaultimatimpmedieminmaxmediemediemin
2017-06-25 06:00:00 21.7 21.7 21.8 0 6864 19.31 19.16 19.47 0 0 0
2017-06-25 06:10:00 21.6 21.6 21.7 0 6816 20.1 20 20.2 0 0 0
2017-06-25 06:20:00 21.7 21.7 21.7 0 6864 20.69 20.45 20.94 0 0 0
2017-06-25 06:30:00 21.6 21.6 21.7 0 6904 21.79 21.75 21.83 0 0 0
2017-06-25 06:40:00 21.7 21.7 21.7 0 6952 21.7 21.57 21.84 0 0 0
2017-06-25 06:50:00 21.7 21.7 21.7 0 7010 21.74 21.62 21.87 0 0 0
2017-06-25 07:00:00 21.6 21.6 21.7 0 7050 21.89 21.68 22.11 0 0 0
2017-06-25 07:10:00 21.7 21.7 21.7 0 7040 22.82 22.64 23.01 0 0 0
2017-06-25 07:20:00 21.8 21.8 21.8 0 7108 22.61 22.59 22.64 0 0 0
2017-06-25 07:30:00 21.8 21.8 21.9 0 7118 22.82 22.67 22.98 0 0 0
2017-06-25 07:40:00 21.8 21.8 21.8 0 7186 23.91 23.77 24.05 0 0 0
2017-06-25 07:50:00 21.8 21.8 21.9 0 7254 24.83 24.77 24.89 0 0 0
2017-06-25 08:00:00 21.9 21.9 21.9 0 7264 25.01 24.93 25.09 0 0 0
2017-06-25 08:10:00 22 21.9 22.1 0 7254 24.44 24.44 24.45 0 0 0
2017-06-25 08:20:00 22 21.9 22.1 0 7166 25.33 24.86 25.8 0 0 0
2017-06-25 08:30:00 21.9 21.9 22 0 7098 24.83 24.8 24.87 0 0 0
2017-06-25 08:40:00 22 22 22.1 0 7138 25.46 25.22 25.7 0 0 0
2017-06-25 08:50:00 22.2 22.1 22.3 0 7088 26.09 25.91 26.28 0 0 0
2017-06-25 09:00:00 22.1 22.1 22.2 0 7138 26.29 26.2 26.39 0 0 0
2017-06-25 09:10:00 22.1 22.1 22.2 0 7010 26.64 26.62 26.66 0 0 0
2017-06-25 09:20:00 22.3 22.3 22.3 0 7108 27.32 27.27 27.38 0 0 0
2017-06-25 09:30:00 22.2 22.2 22.2 0 7176 27.65 27.42 27.88 0 0 0
2017-06-25 09:40:00 22.2 22.2 22.2 0 7246 27.94 27.81 28.08 0 0 0
2017-06-25 09:50:00 22.3 22.3 22.4 0 7226 28.09 28.01 28.18 0 0 0
2017-06-25 10:00:00 22.3 22.3 22.4 0 7246 28.41 28.28 28.55 0 0 0
2017-06-25 10:10:00 22.3 22.3 22.4 0 7030 29.11 28.87 29.35 0 0 0
2017-06-25 10:20:00 22.4 22.4 22.5 0 7246 29.91 29.7 30.13 0 0 0
2017-06-25 10:30:00 22.4 22.4 22.4 0 7236 30.42 30.13 30.71 0 0 0
2017-06-25 10:40:00 22.6 22.6 22.6 0 7246 31.14 31.04 31.24 0 0 0
2017-06-25 10:50:00 22.6 22.6 22.6 0 7236 31.07 30.79 31.35 0 0 0
2017-06-25 11:00:00 22.5 22.5 22.6 0 7246 29.9 29.73 30.07 0 0 0
2017-06-25 11:10:00 22.8 22.7 23 0 7000 30.15 30.14 30.16 0 0 0
2017-06-25 11:20:00 22.7 22.7 22.7 0 7196 30.54 30.45 30.63 0 0 0
2017-06-25 11:30:00 22.7 22.7 22.7 0 7186 31.07 31.06 31.09 0 0 0
2017-06-25 11:40:00 22.7 22.7 22.7 0 7246 30.91 30.88 30.95 0 0 0
2017-06-25 11:50:00 22.9 22.8 23 0 7196 30.88 30.77 30.99 0 0 0
2017-06-25 12:00:00 22.9 22.8 23.1 0 7246 30.77 30.65 30.89 0 0 0
2017-06-25 12:10:00 22.8 22.8 22.9 0 7196 30.81 30.75 30.88 0 0 0
2017-06-25 12:20:00 23.1 23.1 23.2 0 7246 31.25 31.07 31.43 0 0 0
2017-06-25 12:30:00 23 22.9 23.2 0 7216 31.6 31.56 31.65 0 0 0
2017-06-25 12:40:00 23.2 23.2 23.3 0 7246 31.48 31.12 31.85 0 0 0
2017-06-25 12:50:00 23.4 23.3 23.5 0 7246 31.14 31.12 31.17 0 0 0
2017-06-25 13:00:00 23.5 23.4 23.6 0 7246 31.59 31.51 31.68 0 0 0
2017-06-25 13:10:00 23.6 23.6 23.7 0 7246 31.74 31.67 31.82 0 0 0
2017-06-25 13:20:00 23.7 23.7 23.7 0 7246 31.44 31.4 31.49 0 0 0
2017-06-25 13:30:00 23.9 23.9 23.9 0 7246 32.21 31.67 32.76 0 0 0
2017-06-25 13:40:00 24.1 24.1 24.1 0 7254 32.19 31.59 32.79 0 0 0
2017-06-25 13:50:00 24.3 24.3 24.4 0 7246 32.69 32.46 32.92 0 0 0